sensor_id;sensor_type;location;lat;lon;timestamp;temperature;humidity
15156;DHT22;7678;50.058;8.306;2023-11-19T00:00:30;7.50;99.90
15156;DHT22;7678;50.058;8.306;2023-11-19T00:02:59;7.50;99.90
15156;DHT22;7678;50.058;8.306;2023-11-19T00:05:28;7.50;99.90
15156;DHT22;7678;50.058;8.306;2023-11-19T00:07:56;7.50;99.90
15156;DHT22;7678;50.058;8.306;2023-11-19T00:10:24;7.50;99.90
15156;DHT22;7678;50.058;8.306;2023-11-19T00:12:52;7.40;99.90
15156;DHT22;7678;50.058;8.306;2023-11-19T00:15:20;7.40;99.90
15156;DHT22;7678;50.058;8.306;2023-11-19T00:17:51;7.40;99.90
15156;DHT22;7678;50.058;8.306;2023-11-19T00:20:21;7.40;99.90
15156;DHT22;7678;50.058;8.306;2023-11-19T00:22:49;7.40;99.90
15156;DHT22;7678;50.058;8.306;2023-11-19T00:25:21;7.40;99.90
15156;DHT22;7678;50.058;8.306;2023-11-19T00:27:50;7.40;99.90
15156;DHT22;7678;50.058;8.306;2023-11-19T00:30:20;7.40;99.90
15156;DHT22;7678;50.058;8.306;2023-11-19T00:32:49;7.40;99.90
15156;DHT22;7678;50.058;8.306;2023-11-19T00:35:17;7.40;99.90
15156;DHT22;7678;50.058;8.306;2023-11-19T00:37:46;7.40;99.90
15156;DHT22;7678;50.058;8.306;2023-11-19T00:40:15;7.40;99.90
15156;DHT22;7678;50.058;8.306;2023-11-19T00:42:45;7.40;99.90
15156;DHT22;7678;50.058;8.306;2023-11-19T00:45:14;7.40;99.90
15156;DHT22;7678;50.058;8.306;2023-11-19T00:47:42;7.50;99.90
15156;DHT22;7678;50.058;8.306;2023-11-19T00:50:13;7.50;99.90
15156;DHT22;7678;50.058;8.306;2023-11-19T00:52:41;7.50;99.90
15156;DHT22;7678;50.058;8.306;2023-11-19T00:55:10;7.50;99.90
15156;DHT22;7678;50.058;8.306;2023-11-19T00:57:39;7.50;99.90
15156;DHT22;7678;50.058;8.306;2023-11-19T01:00:08;7.50;99.90
15156;DHT22;7678;50.058;8.306;2023-11-19T01:02:45;7.50;99.90
15156;DHT22;7678;50.058;8.306;2023-11-19T01:05:18;7.50;99.90
15156;DHT22;7678;50.058;8.306;2023-11-19T01:07:48;7.50;99.90
15156;DHT22;7678;50.058;8.306;2023-11-19T01:10:18;7.50;99.90
15156;DHT22;7678;50.058;8.306;2023-11-19T01:12:47;7.60;99.90
15156;DHT22;7678;50.058;8.306;2023-11-19T01:15:15;7.50;99.90
15156;DHT22;7678;50.058;8.306;2023-11-19T01:17:45;7.60;99.90
15156;DHT22;7678;50.058;8.306;2023-11-19T01:20:16;7.50;99.90
15156;DHT22;7678;50.058;8.306;2023-11-19T01:22:45;7.50;99.90
15156;DHT22;7678;50.058;8.306;2023-11-19T01:25:15;7.60;99.90
15156;DHT22;7678;50.058;8.306;2023-11-19T01:27:44;7.60;99.90
15156;DHT22;7678;50.058;8.306;2023-11-19T01:30:13;7.60;99.90
15156;DHT22;7678;50.058;8.306;2023-11-19T01:32:41;7.60;99.90
15156;DHT22;7678;50.058;8.306;2023-11-19T01:35:09;7.60;99.90
15156;DHT22;7678;50.058;8.306;2023-11-19T01:37:38;7.60;99.90
15156;DHT22;7678;50.058;8.306;2023-11-19T01:40:06;7.60;99.90
15156;DHT22;7678;50.058;8.306;2023-11-19T01:42:37;7.60;99.90
15156;DHT22;7678;50.058;8.306;2023-11-19T01:45:08;7.70;99.90
15156;DHT22;7678;50.058;8.306;2023-11-19T01:47:37;7.70;99.90
15156;DHT22;7678;50.058;8.306;2023-11-19T01:50:07;7.70;99.90
15156;DHT22;7678;50.058;8.306;2023-11-19T01:52:36;7.70;99.90
15156;DHT22;7678;50.058;8.306;2023-11-19T01:55:06;7.70;99.90
15156;DHT22;7678;50.058;8.306;2023-11-19T01:57:37;7.70;99.90
15156;DHT22;7678;50.058;8.306;2023-11-19T02:00:11;7.70;99.90
15156;DHT22;7678;50.058;8.306;2023-11-19T02:02:40;7.70;99.90
15156;DHT22;7678;50.058;8.306;2023-11-19T02:05:09;7.70;99.90
15156;DHT22;7678;50.058;8.306;2023-11-19T02:07:37;7.70;99.90
15156;DHT22;7678;50.058;8.306;2023-11-19T02:10:06;7.60;99.90
15156;DHT22;7678;50.058;8.306;2023-11-19T02:12:40;7.70;99.90
15156;DHT22;7678;50.058;8.306;2023-11-19T02:15:12;7.70;99.90
15156;DHT22;7678;50.058;8.306;2023-11-19T02:17:40;7.80;99.90
15156;DHT22;7678;50.058;8.306;2023-11-19T02:20:08;7.80;99.90
15156;DHT22;7678;50.058;8.306;2023-11-19T02:22:39;7.80;99.90
15156;DHT22;7678;50.058;8.306;2023-11-19T02:25:08;7.80;99.90
15156;DHT22;7678;50.058;8.306;2023-11-19T02:27:47;7.90;99.90
15156;DHT22;7678;50.058;8.306;2023-11-19T02:30:17;7.80;99.90
15156;DHT22;7678;50.058;8.306;2023-11-19T02:32:45;7.80;99.90
15156;DHT22;7678;50.058;8.306;2023-11-19T02:35:15;7.80;99.90
15156;DHT22;7678;50.058;8.306;2023-11-19T02:37:43;7.80;99.90
15156;DHT22;7678;50.058;8.306;2023-11-19T02:40:11;7.80;99.90
15156;DHT22;7678;50.058;8.306;2023-11-19T02:42:40;7.80;99.90
15156;DHT22;7678;50.058;8.306;2023-11-19T02:45:14;7.80;99.90
15156;DHT22;7678;50.058;8.306;2023-11-19T02:47:42;7.80;99.90
15156;DHT22;7678;50.058;8.306;2023-11-19T02:50:11;7.80;99.90
15156;DHT22;7678;50.058;8.306;2023-11-19T02:52:41;7.80;99.90
15156;DHT22;7678;50.058;8.306;2023-11-19T02:55:10;7.80;99.90
15156;DHT22;7678;50.058;8.306;2023-11-19T02:57:39;7.80;99.90
15156;DHT22;7678;50.058;8.306;2023-11-19T03:00:15;7.80;99.90
15156;DHT22;7678;50.058;8.306;2023-11-19T03:02:44;7.80;99.90
15156;DHT22;7678;50.058;8.306;2023-11-19T03:05:13;7.80;99.90
15156;DHT22;7678;50.058;8.306;2023-11-19T03:07:44;7.80;99.90
15156;DHT22;7678;50.058;8.306;2023-11-19T03:10:12;7.80;99.90
15156;DHT22;7678;50.058;8.306;2023-11-19T03:12:42;7.80;99.90
15156;DHT22;7678;50.058;8.306;2023-11-19T03:15:10;7.80;99.90
15156;DHT22;7678;50.058;8.306;2023-11-19T03:17:41;7.80;99.90
15156;DHT22;7678;50.058;8.306;2023-11-19T03:20:10;7.90;99.90
15156;DHT22;7678;50.058;8.306;2023-11-19T03:22:42;7.90;99.90
15156;DHT22;7678;50.058;8.306;2023-11-19T03:25:10;7.80;99.90
15156;DHT22;7678;50.058;8.306;2023-11-19T03:27:40;7.90;99.90
15156;DHT22;7678;50.058;8.306;2023-11-19T03:30:10;7.80;99.90
15156;DHT22;7678;50.058;8.306;2023-11-19T03:32:40;7.80;99.90
15156;DHT22;7678;50.058;8.306;2023-11-19T03:35:08;7.80;99.90
15156;DHT22;7678;50.058;8.306;2023-11-19T03:37:36;7.80;99.90
15156;DHT22;7678;50.058;8.306;2023-11-19T03:40:07;7.90;99.90
15156;DHT22;7678;50.058;8.306;2023-11-19T03:42:35;7.90;99.90
15156;DHT22;7678;50.058;8.306;2023-11-19T03:45:04;7.90;99.90
15156;DHT22;7678;50.058;8.306;2023-11-19T03:47:32;7.90;99.90
15156;DHT22;7678;50.058;8.306;2023-11-19T03:50:02;7.90;99.90
15156;DHT22;7678;50.058;8.306;2023-11-19T03:52:31;7.90;99.90
15156;DHT22;7678;50.058;8.306;2023-11-19T03:55:10;7.90;99.90
15156;DHT22;7678;50.058;8.306;2023-11-19T03:57:39;7.90;99.90
15156;DHT22;7678;50.058;8.306;2023-11-19T04:00:08;7.90;99.90
15156;DHT22;7678;50.058;8.306;2023-11-19T04:02:37;7.90;99.90
15156;DHT22;7678;50.058;8.306;2023-11-19T04:05:07;7.90;99.90
15156;DHT22;7678;50.058;8.306;2023-11-19T04:07:36;7.90;99.90
15156;DHT22;7678;50.058;8.306;2023-11-19T04:10:05;7.90;99.90
15156;DHT22;7678;50.058;8.306;2023-11-19T04:12:33;7.90;99.90
15156;DHT22;7678;50.058;8.306;2023-11-19T04:15:01;7.90;99.90
15156;DHT22;7678;50.058;8.306;2023-11-19T04:17:29;7.90;99.90
15156;DHT22;7678;50.058;8.306;2023-11-19T04:19:57;7.90;99.90
15156;DHT22;7678;50.058;8.306;2023-11-19T04:22:27;8.00;99.90
15156;DHT22;7678;50.058;8.306;2023-11-19T04:24:55;7.90;99.90
15156;DHT22;7678;50.058;8.306;2023-11-19T04:27:23;7.90;99.90
15156;DHT22;7678;50.058;8.306;2023-11-19T04:29:52;8.00;99.90
15156;DHT22;7678;50.058;8.306;2023-11-19T04:32:22;7.90;99.90
15156;DHT22;7678;50.058;8.306;2023-11-19T04:34:52;8.00;99.90
15156;DHT22;7678;50.058;8.306;2023-11-19T04:37:20;8.00;99.90
15156;DHT22;7678;50.058;8.306;2023-11-19T04:39:49;7.90;99.90
15156;DHT22;7678;50.058;8.306;2023-11-19T04:42:18;8.00;99.90
15156;DHT22;7678;50.058;8.306;2023-11-19T04:44:46;8.00;99.90
15156;DHT22;7678;50.058;8.306;2023-11-19T04:47:14;8.00;99.90
15156;DHT22;7678;50.058;8.306;2023-11-19T04:49:43;8.00;99.90
15156;DHT22;7678;50.058;8.306;2023-11-19T04:52:11;8.00;99.90
15156;DHT22;7678;50.058;8.306;2023-11-19T04:54:41;8.00;99.90
15156;DHT22;7678;50.058;8.306;2023-11-19T04:57:11;8.10;99.90
15156;DHT22;7678;50.058;8.306;2023-11-19T04:59:40;8.10;99.90
15156;DHT22;7678;50.058;8.306;2023-11-19T05:02:09;8.10;99.90
15156;DHT22;7678;50.058;8.306;2023-11-19T05:04:37;8.10;99.90
15156;DHT22;7678;50.058;8.306;2023-11-19T05:07:05;8.20;99.90
15156;DHT22;7678;50.058;8.306;2023-11-19T05:09:34;8.20;99.90
15156;DHT22;7678;50.058;8.306;2023-11-19T05:12:02;8.10;99.90
15156;DHT22;7678;50.058;8.306;2023-11-19T05:14:31;8.20;99.90
15156;DHT22;7678;50.058;8.306;2023-11-19T05:16:59;8.10;99.90
15156;DHT22;7678;50.058;8.306;2023-11-19T05:19:27;8.10;99.90
15156;DHT22;7678;50.058;8.306;2023-11-19T05:21:56;8.10;99.90
15156;DHT22;7678;50.058;8.306;2023-11-19T05:24:27;8.20;99.90
15156;DHT22;7678;50.058;8.306;2023-11-19T05:26:55;8.20;99.90
15156;DHT22;7678;50.058;8.306;2023-11-19T05:29:25;8.10;99.90
15156;DHT22;7678;50.058;8.306;2023-11-19T05:31:55;8.10;99.90
15156;DHT22;7678;50.058;8.306;2023-11-19T05:34:23;8.10;99.90
15156;DHT22;7678;50.058;8.306;2023-11-19T05:36:51;8.10;99.90
15156;DHT22;7678;50.058;8.306;2023-11-19T05:39:19;8.10;99.90
15156;DHT22;7678;50.058;8.306;2023-11-19T05:41:48;8.20;99.90
15156;DHT22;7678;50.058;8.306;2023-11-19T05:44:17;8.10;99.90
15156;DHT22;7678;50.058;8.306;2023-11-19T05:46:45;8.20;99.90
15156;DHT22;7678;50.058;8.306;2023-11-19T05:49:17;8.30;99.90
15156;DHT22;7678;50.058;8.306;2023-11-19T05:51:45;8.30;99.90
15156;DHT22;7678;50.058;8.306;2023-11-19T05:54:13;8.30;99.90
15156;DHT22;7678;50.058;8.306;2023-11-19T05:56:41;8.20;99.90
15156;DHT22;7678;50.058;8.306;2023-11-19T05:59:09;8.30;99.90
15156;DHT22;7678;50.058;8.306;2023-11-19T06:01:42;8.30;99.90
15156;DHT22;7678;50.058;8.306;2023-11-19T06:04:10;8.30;99.90
15156;DHT22;7678;50.058;8.306;2023-11-19T06:06:40;8.40;99.90
15156;DHT22;7678;50.058;8.306;2023-11-19T06:09:08;8.40;99.90
15156;DHT22;7678;50.058;8.306;2023-11-19T06:11:40;8.40;99.90
15156;DHT22;7678;50.058;8.306;2023-11-19T06:14:08;8.50;99.90
15156;DHT22;7678;50.058;8.306;2023-11-19T06:16:36;8.40;99.90
15156;DHT22;7678;50.058;8.306;2023-11-19T06:19:07;8.40;99.90
15156;DHT22;7678;50.058;8.306;2023-11-19T06:21:37;8.40;99.90
15156;DHT22;7678;50.058;8.306;2023-11-19T06:24:06;8.40;99.90
15156;DHT22;7678;50.058;8.306;2023-11-19T06:26:35;8.50;99.90
15156;DHT22;7678;50.058;8.306;2023-11-19T06:29:03;8.40;99.90
15156;DHT22;7678;50.058;8.306;2023-11-19T06:31:33;8.50;99.90
15156;DHT22;7678;50.058;8.306;2023-11-19T06:34:01;8.50;99.90
15156;DHT22;7678;50.058;8.306;2023-11-19T06:36:30;8.50;99.90
15156;DHT22;7678;50.058;8.306;2023-11-19T06:38:58;8.50;99.90
15156;DHT22;7678;50.058;8.306;2023-11-19T06:41:28;8.50;99.90
15156;DHT22;7678;50.058;8.306;2023-11-19T06:43:56;8.40;99.90
15156;DHT22;7678;50.058;8.306;2023-11-19T06:46:24;8.50;99.90
15156;DHT22;7678;50.058;8.306;2023-11-19T06:48:52;8.50;99.90
15156;DHT22;7678;50.058;8.306;2023-11-19T06:51:20;8.50;99.90
15156;DHT22;7678;50.058;8.306;2023-11-19T06:53:48;8.50;99.90
15156;DHT22;7678;50.058;8.306;2023-11-19T06:56:20;8.50;99.90
15156;DHT22;7678;50.058;8.306;2023-11-19T06:58:50;8.50;99.90
15156;DHT22;7678;50.058;8.306;2023-11-19T07:01:19;8.50;99.90
15156;DHT22;7678;50.058;8.306;2023-11-19T07:03:47;8.60;99.90
15156;DHT22;7678;50.058;8.306;2023-11-19T07:06:16;8.60;99.90
15156;DHT22;7678;50.058;8.306;2023-11-19T07:08:44;8.70;99.90
15156;DHT22;7678;50.058;8.306;2023-11-19T07:11:13;8.70;99.90
15156;DHT22;7678;50.058;8.306;2023-11-19T07:13:43;8.60;99.90
15156;DHT22;7678;50.058;8.306;2023-11-19T07:16:15;8.70;99.90
15156;DHT22;7678;50.058;8.306;2023-11-19T07:18:43;8.70;99.90
15156;DHT22;7678;50.058;8.306;2023-11-19T07:21:12;8.80;99.90
15156;DHT22;7678;50.058;8.306;2023-11-19T07:23:40;8.80;99.90
15156;DHT22;7678;50.058;8.306;2023-11-19T07:26:08;8.80;99.90
15156;DHT22;7678;50.058;8.306;2023-11-19T07:28:37;8.80;99.90
15156;DHT22;7678;50.058;8.306;2023-11-19T07:31:06;8.90;99.90
15156;DHT22;7678;50.058;8.306;2023-11-19T07:33:37;8.90;99.90
15156;DHT22;7678;50.058;8.306;2023-11-19T07:36:05;8.90;99.90
15156;DHT22;7678;50.058;8.306;2023-11-19T07:38:34;9.00;99.90
15156;DHT22;7678;50.058;8.306;2023-11-19T07:41:02;9.10;99.90
15156;DHT22;7678;50.058;8.306;2023-11-19T07:43:32;9.10;99.90
15156;DHT22;7678;50.058;8.306;2023-11-19T07:46:00;9.10;99.90
15156;DHT22;7678;50.058;8.306;2023-11-19T07:48:28;9.20;99.90
15156;DHT22;7678;50.058;8.306;2023-11-19T07:50:58;9.30;99.90
15156;DHT22;7678;50.058;8.306;2023-11-19T07:53:26;9.30;99.90
15156;DHT22;7678;50.058;8.306;2023-11-19T07:55:54;9.40;99.90
15156;DHT22;7678;50.058;8.306;2023-11-19T07:58:22;9.40;99.90
15156;DHT22;7678;50.058;8.306;2023-11-19T08:00:50;9.50;99.90
15156;DHT22;7678;50.058;8.306;2023-11-19T08:03:18;9.60;99.90
15156;DHT22;7678;50.058;8.306;2023-11-19T08:05:49;9.70;99.90
15156;DHT22;7678;50.058;8.306;2023-11-19T08:08:19;9.80;99.90
15156;DHT22;7678;50.058;8.306;2023-11-19T08:10:47;9.80;99.90
15156;DHT22;7678;50.058;8.306;2023-11-19T08:13:15;9.90;99.90
15156;DHT22;7678;50.058;8.306;2023-11-19T08:15:46;10.10;99.90
15156;DHT22;7678;50.058;8.306;2023-11-19T08:18:15;10.30;99.90
15156;DHT22;7678;50.058;8.306;2023-11-19T08:20:43;10.40;99.90
15156;DHT22;7678;50.058;8.306;2023-11-19T08:23:11;10.40;99.90
15156;DHT22;7678;50.058;8.306;2023-11-19T08:25:41;10.40;99.90
15156;DHT22;7678;50.058;8.306;2023-11-19T08:28:09;10.50;99.90
15156;DHT22;7678;50.058;8.306;2023-11-19T08:30:37;10.40;99.90
15156;DHT22;7678;50.058;8.306;2023-11-19T08:33:06;10.40;99.90
15156;DHT22;7678;50.058;8.306;2023-11-19T08:35:34;10.50;99.90
15156;DHT22;7678;50.058;8.306;2023-11-19T08:38:02;10.40;99.90
15156;DHT22;7678;50.058;8.306;2023-11-19T08:40:30;10.30;99.90
15156;DHT22;7678;50.058;8.306;2023-11-19T08:42:59;10.30;99.90
15156;DHT22;7678;50.058;8.306;2023-11-19T08:45:27;10.20;99.90
15156;DHT22;7678;50.058;8.306;2023-11-19T08:47:56;10.30;99.90
15156;DHT22;7678;50.058;8.306;2023-11-19T08:50:25;10.40;99.90
15156;DHT22;7678;50.058;8.306;2023-11-19T08:52:53;10.60;99.90
15156;DHT22;7678;50.058;8.306;2023-11-19T08:55:21;10.70;99.90
15156;DHT22;7678;50.058;8.306;2023-11-19T08:57:49;10.80;99.90
15156;DHT22;7678;50.058;8.306;2023-11-19T09:00:19;10.70;99.90
15156;DHT22;7678;50.058;8.306;2023-11-19T09:02:47;10.50;99.90
15156;DHT22;7678;50.058;8.306;2023-11-19T09:05:16;10.50;99.90
15156;DHT22;7678;50.058;8.306;2023-11-19T09:07:44;10.50;99.90
15156;DHT22;7678;50.058;8.306;2023-11-19T09:10:13;10.30;99.90
15156;DHT22;7678;50.058;8.306;2023-11-19T09:12:41;10.40;99.90
15156;DHT22;7678;50.058;8.306;2023-11-19T09:15:10;10.50;99.90
15156;DHT22;7678;50.058;8.306;2023-11-19T09:17:40;10.50;99.90
15156;DHT22;7678;50.058;8.306;2023-11-19T09:20:09;10.50;99.90
15156;DHT22;7678;50.058;8.306;2023-11-19T09:22:39;10.60;99.90
15156;DHT22;7678;50.058;8.306;2023-11-19T09:25:08;10.60;99.90
15156;DHT22;7678;50.058;8.306;2023-11-19T09:27:36;10.80;99.90
15156;DHT22;7678;50.058;8.306;2023-11-19T09:30:05;11.00;99.90
15156;DHT22;7678;50.058;8.306;2023-11-19T09:32:34;11.20;99.90
15156;DHT22;7678;50.058;8.306;2023-11-19T09:35:04;11.20;99.90
15156;DHT22;7678;50.058;8.306;2023-11-19T09:37:34;11.20;99.90
15156;DHT22;7678;50.058;8.306;2023-11-19T09:40:02;11.30;99.90
15156;DHT22;7678;50.058;8.306;2023-11-19T09:42:32;11.40;99.90
15156;DHT22;7678;50.058;8.306;2023-11-19T09:45:07;11.60;99.90
15156;DHT22;7678;50.058;8.306;2023-11-19T09:47:39;11.80;99.90
15156;DHT22;7678;50.058;8.306;2023-11-19T09:50:11;11.90;99.90
15156;DHT22;7678;50.058;8.306;2023-11-19T09:52:41;12.10;99.90
15156;DHT22;7678;50.058;8.306;2023-11-19T09:55:09;12.10;99.90
15156;DHT22;7678;50.058;8.306;2023-11-19T09:57:39;12.20;99.90
15156;DHT22;7678;50.058;8.306;2023-11-19T10:00:09;12.40;99.90
15156;DHT22;7678;50.058;8.306;2023-11-19T10:02:39;12.40;99.90
15156;DHT22;7678;50.058;8.306;2023-11-19T10:05:09;12.40;99.90
15156;DHT22;7678;50.058;8.306;2023-11-19T10:07:40;12.50;99.90
15156;DHT22;7678;50.058;8.306;2023-11-19T10:10:08;12.60;99.90
15156;DHT22;7678;50.058;8.306;2023-11-19T10:12:40;12.70;99.90
15156;DHT22;7678;50.058;8.306;2023-11-19T10:15:24;12.60;99.90
15156;DHT22;7678;50.058;8.306;2023-11-19T10:17:55;12.90;99.90
15156;DHT22;7678;50.058;8.306;2023-11-19T10:20:25;12.80;99.90
15156;DHT22;7678;50.058;8.306;2023-11-19T10:22:54;12.80;99.90
15156;DHT22;7678;50.058;8.306;2023-11-19T10:25:23;12.70;99.90
15156;DHT22;7678;50.058;8.306;2023-11-19T10:27:52;12.80;99.90
15156;DHT22;7678;50.058;8.306;2023-11-19T10:30:21;12.90;99.90
15156;DHT22;7678;50.058;8.306;2023-11-19T10:33:07;12.90;99.90
15156;DHT22;7678;50.058;8.306;2023-11-19T10:35:51;13.00;99.90
15156;DHT22;7678;50.058;8.306;2023-11-19T10:38:22;13.30;99.90
15156;DHT22;7678;50.058;8.306;2023-11-19T10:40:51;13.40;99.90
15156;DHT22;7678;50.058;8.306;2023-11-19T10:43:20;13.50;99.90
15156;DHT22;7678;50.058;8.306;2023-11-19T10:45:50;13.30;99.90
15156;DHT22;7678;50.058;8.306;2023-11-19T10:48:18;13.30;99.90
15156;DHT22;7678;50.058;8.306;2023-11-19T10:50:53;13.30;99.90
15156;DHT22;7678;50.058;8.306;2023-11-19T10:53:25;13.40;99.90
15156;DHT22;7678;50.058;8.306;2023-11-19T10:55:58;13.50;99.90
15156;DHT22;7678;50.058;8.306;2023-11-19T10:58:28;13.50;99.90
15156;DHT22;7678;50.058;8.306;2023-11-19T11:01:07;13.50;99.90
15156;DHT22;7678;50.058;8.306;2023-11-19T11:03:40;13.50;99.90
15156;DHT22;7678;50.058;8.306;2023-11-19T11:06:10;13.40;99.90
15156;DHT22;7678;50.058;8.306;2023-11-19T11:08:40;13.30;99.90
15156;DHT22;7678;50.058;8.306;2023-11-19T11:11:08;13.50;99.90
15156;DHT22;7678;50.058;8.306;2023-11-19T11:13:42;13.50;99.90
15156;DHT22;7678;50.058;8.306;2023-11-19T11:16:12;13.60;99.90
15156;DHT22;7678;50.058;8.306;2023-11-19T11:18:44;14.00;99.90
15156;DHT22;7678;50.058;8.306;2023-11-19T11:21:16;14.00;99.90
15156;DHT22;7678;50.058;8.306;2023-11-19T11:24:01;13.80;99.90
15156;DHT22;7678;50.058;8.306;2023-11-19T11:26:53;13.60;99.90
15156;DHT22;7678;50.058;8.306;2023-11-19T11:29:30;13.50;99.90
15156;DHT22;7678;50.058;8.306;2023-11-19T11:32:07;13.40;99.90
15156;DHT22;7678;50.058;8.306;2023-11-19T11:34:57;13.50;99.90
15156;DHT22;7678;50.058;8.306;2023-11-19T11:37:32;13.70;99.90
15156;DHT22;7678;50.058;8.306;2023-11-19T11:40:02;13.60;99.90
15156;DHT22;7678;50.058;8.306;2023-11-19T11:42:37;13.70;99.90
15156;DHT22;7678;50.058;8.306;2023-11-19T11:45:06;13.70;99.90
15156;DHT22;7678;50.058;8.306;2023-11-19T11:48:06;13.80;99.90
15156;DHT22;7678;50.058;8.306;2023-11-19T11:50:51;13.90;99.90
15156;DHT22;7678;50.058;8.306;2023-11-19T11:53:22;13.80;99.90
15156;DHT22;7678;50.058;8.306;2023-11-19T11:55:56;13.90;99.90
15156;DHT22;7678;50.058;8.306;2023-11-19T11:58:36;13.80;99.90
15156;DHT22;7678;50.058;8.306;2023-11-19T12:01:05;13.90;99.90
15156;DHT22;7678;50.058;8.306;2023-11-19T12:03:34;13.60;99.90
15156;DHT22;7678;50.058;8.306;2023-11-19T12:06:02;13.60;99.90
15156;DHT22;7678;50.058;8.306;2023-11-19T12:08:34;13.50;99.90
15156;DHT22;7678;50.058;8.306;2023-11-19T12:11:19;13.50;99.90
15156;DHT22;7678;50.058;8.306;2023-11-19T12:13:54;13.60;99.90
15156;DHT22;7678;50.058;8.306;2023-11-19T12:16:25;13.70;99.90
15156;DHT22;7678;50.058;8.306;2023-11-19T12:18:54;13.40;99.90
15156;DHT22;7678;50.058;8.306;2023-11-19T12:21:30;13.30;99.90
15156;DHT22;7678;50.058;8.306;2023-11-19T12:24:02;13.50;99.90
15156;DHT22;7678;50.058;8.306;2023-11-19T12:26:36;13.40;99.90
15156;DHT22;7678;50.058;8.306;2023-11-19T12:29:05;13.70;99.90
15156;DHT22;7678;50.058;8.306;2023-11-19T12:31:36;13.80;99.90
15156;DHT22;7678;50.058;8.306;2023-11-19T12:34:10;13.80;99.90
15156;DHT22;7678;50.058;8.306;2023-11-19T12:36:40;13.80;99.90
15156;DHT22;7678;50.058;8.306;2023-11-19T12:39:12;13.90;99.90
15156;DHT22;7678;50.058;8.306;2023-11-19T12:41:51;13.90;99.90
15156;DHT22;7678;50.058;8.306;2023-11-19T12:44:20;13.80;99.90
15156;DHT22;7678;50.058;8.306;2023-11-19T12:47:03;13.80;99.90
15156;DHT22;7678;50.058;8.306;2023-11-19T12:49:31;13.80;99.90
15156;DHT22;7678;50.058;8.306;2023-11-19T12:52:00;13.90;99.90
15156;DHT22;7678;50.058;8.306;2023-11-19T12:54:36;13.90;99.90
15156;DHT22;7678;50.058;8.306;2023-11-19T12:57:05;13.80;99.90
15156;DHT22;7678;50.058;8.306;2023-11-19T12:59:34;13.60;99.90
15156;DHT22;7678;50.058;8.306;2023-11-19T13:02:02;13.60;99.90
15156;DHT22;7678;50.058;8.306;2023-11-19T13:04:33;13.50;99.90
15156;DHT22;7678;50.058;8.306;2023-11-19T13:07:02;13.60;99.90
15156;DHT22;7678;50.058;8.306;2023-11-19T13:09:32;13.70;99.90
15156;DHT22;7678;50.058;8.306;2023-11-19T13:12:13;13.70;99.90
15156;DHT22;7678;50.058;8.306;2023-11-19T13:14:42;13.90;99.90
15156;DHT22;7678;50.058;8.306;2023-11-19T13:17:15;13.70;99.90
15156;DHT22;7678;50.058;8.306;2023-11-19T13:19:43;13.60;99.90
15156;DHT22;7678;50.058;8.306;2023-11-19T13:22:14;13.70;99.90
15156;DHT22;7678;50.058;8.306;2023-11-19T13:24:42;13.80;99.90
15156;DHT22;7678;50.058;8.306;2023-11-19T13:27:13;13.80;99.90
15156;DHT22;7678;50.058;8.306;2023-11-19T13:29:41;13.80;99.90
15156;DHT22;7678;50.058;8.306;2023-11-19T13:32:09;13.70;99.90
15156;DHT22;7678;50.058;8.306;2023-11-19T13:34:37;13.70;99.90
15156;DHT22;7678;50.058;8.306;2023-11-19T13:37:06;13.80;99.90
15156;DHT22;7678;50.058;8.306;2023-11-19T13:39:34;13.80;99.90
15156;DHT22;7678;50.058;8.306;2023-11-19T13:42:04;13.70;99.90
15156;DHT22;7678;50.058;8.306;2023-11-19T13:44:36;13.70;99.90
15156;DHT22;7678;50.058;8.306;2023-11-19T13:47:04;13.70;99.90
15156;DHT22;7678;50.058;8.306;2023-11-19T13:49:33;13.70;99.90
15156;DHT22;7678;50.058;8.306;2023-11-19T13:52:01;13.70;99.90
15156;DHT22;7678;50.058;8.306;2023-11-19T13:54:29;13.50;99.90
15156;DHT22;7678;50.058;8.306;2023-11-19T13:56:57;13.40;99.90
15156;DHT22;7678;50.058;8.306;2023-11-19T13:59:25;13.50;99.90
15156;DHT22;7678;50.058;8.306;2023-11-19T14:01:55;13.60;99.90
15156;DHT22;7678;50.058;8.306;2023-11-19T14:04:23;13.60;98.40
15156;DHT22;7678;50.058;8.306;2023-11-19T14:06:54;13.60;97.80
15156;DHT22;7678;50.058;8.306;2023-11-19T14:09:23;13.40;99.90
15156;DHT22;7678;50.058;8.306;2023-11-19T14:11:51;13.40;99.90
15156;DHT22;7678;50.058;8.306;2023-11-19T14:14:19;13.40;99.90
15156;DHT22;7678;50.058;8.306;2023-11-19T14:16:47;13.40;99.30
15156;DHT22;7678;50.058;8.306;2023-11-19T14:19:17;13.40;99.90
15156;DHT22;7678;50.058;8.306;2023-11-19T14:21:45;13.20;99.90
15156;DHT22;7678;50.058;8.306;2023-11-19T14:24:14;13.20;99.90
15156;DHT22;7678;50.058;8.306;2023-11-19T14:26:46;13.30;99.90
15156;DHT22;7678;50.058;8.306;2023-11-19T14:29:15;13.20;99.90
15156;DHT22;7678;50.058;8.306;2023-11-19T14:31:43;13.00;99.90
15156;DHT22;7678;50.058;8.306;2023-11-19T14:34:11;12.90;99.90
15156;DHT22;7678;50.058;8.306;2023-11-19T14:36:41;12.90;99.90
15156;DHT22;7678;50.058;8.306;2023-11-19T14:39:09;13.10;99.90
15156;DHT22;7678;50.058;8.306;2023-11-19T14:41:37;13.10;99.90
15156;DHT22;7678;50.058;8.306;2023-11-19T14:44:05;13.10;99.90
15156;DHT22;7678;50.058;8.306;2023-11-19T14:46:33;13.30;99.90
15156;DHT22;7678;50.058;8.306;2023-11-19T14:49:02;13.20;99.90
15156;DHT22;7678;50.058;8.306;2023-11-19T14:51:35;13.10;99.90
15156;DHT22;7678;50.058;8.306;2023-11-19T14:54:05;13.00;99.90
15156;DHT22;7678;50.058;8.306;2023-11-19T14:56:33;12.80;99.90
15156;DHT22;7678;50.058;8.306;2023-11-19T14:59:03;12.80;99.90
15156;DHT22;7678;50.058;8.306;2023-11-19T15:01:31;12.80;99.90
15156;DHT22;7678;50.058;8.306;2023-11-19T15:03:59;12.70;99.90
15156;DHT22;7678;50.058;8.306;2023-11-19T15:06:33;12.60;99.90
15156;DHT22;7678;50.058;8.306;2023-11-19T15:09:01;12.60;99.90
15156;DHT22;7678;50.058;8.306;2023-11-19T15:11:31;12.40;99.90
15156;DHT22;7678;50.058;8.306;2023-11-19T15:14:01;12.50;99.90
15156;DHT22;7678;50.058;8.306;2023-11-19T15:16:29;12.40;99.90
15156;DHT22;7678;50.058;8.306;2023-11-19T15:19:03;12.40;99.90
15156;DHT22;7678;50.058;8.306;2023-11-19T15:21:31;12.40;99.90
15156;DHT22;7678;50.058;8.306;2023-11-19T15:23:59;12.20;99.90
15156;DHT22;7678;50.058;8.306;2023-11-19T15:26:27;12.20;99.90
15156;DHT22;7678;50.058;8.306;2023-11-19T15:28:57;12.20;99.90
15156;DHT22;7678;50.058;8.306;2023-11-19T15:31:25;12.00;99.90
15156;DHT22;7678;50.058;8.306;2023-11-19T15:33:55;12.00;99.90
15156;DHT22;7678;50.058;8.306;2023-11-19T15:36:26;11.80;99.90
15156;DHT22;7678;50.058;8.306;2023-11-19T15:38:54;11.90;99.90
15156;DHT22;7678;50.058;8.306;2023-11-19T15:41:22;11.90;99.90
15156;DHT22;7678;50.058;8.306;2023-11-19T15:43:52;11.70;99.90
15156;DHT22;7678;50.058;8.306;2023-11-19T15:46:22;11.90;99.90
15156;DHT22;7678;50.058;8.306;2023-11-19T15:48:52;12.00;99.90
15156;DHT22;7678;50.058;8.306;2023-11-19T15:51:21;11.80;99.90
15156;DHT22;7678;50.058;8.306;2023-11-19T15:53:49;11.70;99.90
15156;DHT22;7678;50.058;8.306;2023-11-19T15:56:17;11.80;99.90
15156;DHT22;7678;50.058;8.306;2023-11-19T15:58:46;11.70;99.90
15156;DHT22;7678;50.058;8.306;2023-11-19T16:01:15;11.50;99.90
15156;DHT22;7678;50.058;8.306;2023-11-19T16:03:47;11.40;99.90
15156;DHT22;7678;50.058;8.306;2023-11-19T16:06:19;11.40;99.90
15156;DHT22;7678;50.058;8.306;2023-11-19T16:08:47;11.40;99.90
15156;DHT22;7678;50.058;8.306;2023-11-19T16:11:16;11.20;99.90